createdAt,value
2022-09-15T00:00:55.536Z,12.70
2022-09-15T00:03:25.596Z,10.53
2022-09-15T00:05:54.626Z,14.60
2022-09-15T00:08:23.099Z,13.63
2022-09-15T00:10:52.544Z,13.23
2022-09-15T00:13:21.494Z,13.60
2022-09-15T00:15:50.253Z,13.13
2022-09-15T00:18:19.293Z,11.60
2022-09-15T00:20:48.982Z,13.67
2022-09-15T00:23:17.963Z,15.03
2022-09-15T00:25:46.939Z,15.60
2022-09-15T00:28:16.107Z,15.73
2022-09-15T00:30:44.970Z,16.43
2022-09-15T00:33:13.657Z,16.07
2022-09-15T00:35:42.687Z,16.37
2022-09-15T00:38:13.296Z,15.63
2022-09-15T00:40:45.431Z,15.93
2022-09-15T00:43:14.187Z,16.97
2022-09-15T00:45:42.644Z,18.13
2022-09-15T00:48:13.800Z,15.83
2022-09-15T00:50:43.416Z,15.33
2022-09-15T00:53:13.472Z,15.43
2022-09-15T00:55:43.922Z,15.33
2022-09-15T00:58:14.047Z,16.17
2022-09-15T01:00:45.772Z,17.13
2022-09-15T01:03:14.231Z,15.97
2022-09-15T01:05:44.699Z,16.63
2022-09-15T01:08:16.617Z,18.70
2022-09-15T01:10:46.650Z,19.50
2022-09-15T01:13:15.819Z,16.23
2022-09-15T01:15:47.735Z,18.13
2022-09-15T01:18:18.887Z,16.70
2022-09-15T01:21:03.791Z,18.37
2022-09-15T01:23:59.582Z,15.23
2022-09-15T01:26:48.728Z,15.50
2022-09-15T01:29:26.709Z,16.33
2022-09-15T01:32:14.798Z,18.13
2022-09-15T01:34:45.273Z,17.70
2022-09-15T01:37:17.742Z,15.43
2022-09-15T01:39:47.170Z,14.77
2022-09-15T01:42:17.116Z,14.23
2022-09-15T01:44:48.219Z,15.87
2022-09-15T01:47:17.834Z,15.43
2022-09-15T01:49:50.209Z,14.37
2022-09-15T01:52:19.945Z,15.03
2022-09-15T01:57:33.391Z,14.77
2022-09-15T02:00:03.224Z,13.43
2022-09-15T02:02:33.947Z,13.67
2022-09-15T02:05:04.348Z,13.80
2022-09-15T02:07:36.402Z,16.60
2022-09-15T02:10:07.319Z,13.67
2022-09-15T02:12:38.888Z,12.63
2022-09-15T02:15:11.451Z,13.87
2022-09-15T02:17:43.456Z,13.07
2022-09-15T02:20:16.058Z,12.97
2022-09-15T02:22:46.735Z,10.10
2022-09-15T02:25:18.128Z,11.07
2022-09-15T02:27:49.563Z,10.73
2022-09-15T02:30:20.739Z,13.87
2022-09-15T02:32:51.070Z,9.43
2022-09-15T02:35:19.911Z,11.77
2022-09-15T02:37:48.546Z,11.00
2022-09-15T02:40:17.192Z,10.80
2022-09-15T02:42:56.800Z,12.57
2022-09-15T02:45:27.610Z,12.23
2022-09-15T02:47:57.112Z,11.90
2022-09-15T02:50:26.706Z,16.43
2022-09-15T02:52:55.768Z,12.77
2022-09-15T02:55:24.966Z,13.63
2022-09-15T02:57:53.799Z,12.53
2022-09-15T03:00:22.151Z,11.87
2022-09-15T03:02:53.514Z,12.03
2022-09-15T03:05:22.676Z,15.53
2022-09-15T03:07:51.310Z,15.40
2022-09-15T03:10:19.700Z,11.30
2022-09-15T03:12:49.375Z,11.03
2022-09-15T03:15:18.638Z,11.17
2022-09-15T03:17:47.898Z,9.53
2022-09-15T03:20:18.598Z,11.07
2022-09-15T03:22:48.098Z,11.03
2022-09-15T03:25:16.822Z,9.43
2022-09-15T03:27:45.335Z,9.97
2022-09-15T03:30:14.291Z,11.60
2022-09-15T03:32:42.686Z,11.83
2022-09-15T03:35:11.740Z,8.93
2022-09-15T03:37:41.464Z,8.97
2022-09-15T03:40:10.746Z,7.40
2022-09-15T03:42:39.325Z,8.63
2022-09-15T03:45:08.069Z,8.00
2022-09-15T03:47:36.442Z,10.10
2022-09-15T03:50:04.773Z,11.60
2022-09-15T03:52:33.568Z,12.47
2022-09-15T03:55:03.250Z,8.53
2022-09-15T03:57:31.615Z,8.83
2022-09-15T03:59:59.986Z,8.87
2022-09-15T04:02:28.418Z,10.77
2022-09-15T04:04:56.959Z,9.77
2022-09-15T04:07:25.367Z,8.73
2022-09-15T04:09:54.422Z,11.63
2022-09-15T04:12:24.243Z,8.23
2022-09-15T04:14:52.575Z,9.70
2022-09-15T04:17:20.895Z,8.13
2022-09-15T04:19:49.267Z,8.00
2022-09-15T04:22:18.080Z,11.23
2022-09-15T04:24:48.113Z,7.03
2022-09-15T04:27:16.552Z,7.30
2022-09-15T04:29:46.675Z,8.60
2022-09-15T04:32:15.046Z,8.57
2022-09-15T04:34:43.548Z,9.07
2022-09-15T04:37:12.295Z,8.53
2022-09-15T04:39:40.651Z,10.13
2022-09-15T04:42:09.042Z,8.73
2022-09-15T04:44:37.449Z,7.30
2022-09-15T04:47:07.423Z,7.67
2022-09-15T04:49:36.086Z,8.67
2022-09-15T04:52:08.987Z,8.20
2022-09-15T04:54:38.072Z,7.40
2022-09-15T04:57:06.480Z,8.13
2022-09-15T04:59:34.867Z,8.77
2022-09-15T05:02:03.387Z,10.93
2022-09-15T05:04:33.161Z,6.10
2022-09-15T05:07:01.538Z,7.13
2022-09-15T05:09:31.029Z,8.27
2022-09-15T05:11:59.514Z,7.27
2022-09-15T05:14:28.089Z,10.57
2022-09-15T05:16:56.451Z,10.10
2022-09-15T05:19:25.002Z,8.10
2022-09-15T05:21:54.870Z,8.57
2022-09-15T05:24:23.334Z,12.23
2022-09-15T05:26:51.697Z,9.80
2022-09-15T05:29:20.183Z,8.27
2022-09-15T05:31:48.663Z,7.93
2022-09-15T05:34:17.145Z,8.73
2022-09-15T05:36:45.517Z,9.17
2022-09-15T05:39:15.218Z,6.67
2022-09-15T05:41:43.658Z,9.13
2022-09-15T05:44:12.347Z,10.63
2022-09-15T05:46:40.891Z,7.77
2022-09-15T05:49:09.819Z,7.80
2022-09-15T05:51:38.334Z,10.87
2022-09-15T05:54:06.709Z,7.70
2022-09-15T05:56:36.454Z,9.23
2022-09-15T05:59:04.805Z,8.40
2022-09-15T06:01:33.345Z,9.57
2022-09-15T06:04:01.721Z,10.60
2022-09-15T06:06:30.075Z,7.57
2022-09-15T06:09:00.685Z,8.40
2022-09-15T06:11:30.168Z,9.03
2022-09-15T06:14:03.229Z,9.47
2022-09-15T06:16:33.793Z,9.33
2022-09-15T06:19:02.579Z,9.67
2022-09-15T06:21:31.755Z,8.73
2022-09-15T06:24:01.122Z,7.83
2022-09-15T06:26:29.912Z,9.73
2022-09-15T06:28:59.387Z,7.80
2022-09-15T06:31:31.615Z,7.50
2022-09-15T06:34:00.628Z,9.37
2022-09-15T06:36:29.757Z,9.90
2022-09-15T06:38:58.494Z,9.03
2022-09-15T06:41:38.133Z,7.87
2022-09-15T06:44:11.394Z,8.00
2022-09-15T06:46:41.190Z,8.83
2022-09-15T06:49:09.541Z,7.50
2022-09-15T06:51:38.218Z,8.63
2022-09-15T06:54:07.190Z,8.87
2022-09-15T06:56:38.161Z,8.60
2022-09-15T06:59:06.849Z,10.77
2022-09-15T07:01:35.274Z,5.43
2022-09-15T07:04:06.768Z,7.07
2022-09-15T07:06:35.647Z,8.17
2022-09-15T07:09:04.375Z,7.13
2022-09-15T07:11:33.174Z,5.20
2022-09-15T07:14:01.815Z,7.30
2022-09-15T07:16:30.397Z,7.53
2022-09-15T07:19:01.833Z,8.10
2022-09-15T07:21:31.605Z,5.93
2022-09-15T07:24:02.698Z,4.93
2022-09-15T07:26:34.986Z,5.60
2022-09-15T07:29:04.276Z,5.87
2022-09-15T07:31:33.771Z,7.00
2022-09-15T07:34:02.225Z,7.77
2022-09-15T07:36:33.053Z,6.40
2022-09-15T07:39:01.448Z,7.43
2022-09-15T07:41:30.737Z,7.50
2022-09-15T07:43:59.953Z,4.77
2022-09-15T07:46:29.284Z,6.33
2022-09-15T07:48:57.739Z,6.33
2022-09-15T07:51:26.511Z,8.33
2022-09-15T07:53:56.308Z,7.67
2022-09-15T07:56:25.078Z,11.20
2022-09-15T07:58:53.414Z,4.90
2022-09-15T08:01:23.154Z,7.47
2022-09-15T08:03:52.546Z,6.37
2022-09-15T08:06:22.059Z,5.20
2022-09-15T08:08:53.961Z,4.07
2022-09-15T08:11:26.714Z,5.23
2022-09-15T08:13:55.079Z,5.63
2022-09-15T08:16:24.579Z,7.73
2022-09-15T08:18:54.203Z,6.13
2022-09-15T08:21:23.116Z,5.77
2022-09-15T08:23:56.087Z,10.03
2022-09-15T08:26:26.499Z,3.30
2022-09-15T08:28:55.004Z,4.83
2022-09-15T08:31:25.167Z,5.53
2022-09-15T08:33:55.073Z,5.13
2022-09-15T08:36:24.577Z,6.83
2022-09-15T08:38:52.924Z,3.67
2022-09-15T08:41:24.265Z,5.33
2022-09-15T08:43:56.699Z,5.67
2022-09-15T08:46:28.435Z,7.40
2022-09-15T08:49:02.992Z,6.97
2022-09-15T08:51:34.003Z,5.53
2022-09-15T08:54:05.009Z,7.10
2022-09-15T08:56:33.440Z,6.37
2022-09-15T08:59:03.282Z,6.40
2022-09-15T09:01:39.430Z,5.17
2022-09-15T09:04:32.760Z,5.53
2022-09-15T09:07:09.041Z,6.35
2022-09-15T09:09:44.559Z,5.32
2022-09-15T09:12:30.571Z,6.50
2022-09-15T09:15:05.386Z,5.80
2022-09-15T09:17:41.607Z,6.88
2022-09-15T09:20:29.228Z,5.60
2022-09-15T09:22:59.227Z,6.70
2022-09-15T09:25:28.405Z,2.90
2022-09-15T09:27:59.162Z,4.43
2022-09-15T09:30:30.749Z,5.15
2022-09-15T09:33:10.577Z,4.43
2022-09-15T09:35:42.466Z,6.35
2022-09-15T09:38:11.163Z,4.45
2022-09-15T09:40:41.509Z,5.10
2022-09-15T09:43:10.317Z,4.13
2022-09-15T09:45:40.119Z,4.40
2022-09-15T09:48:15.914Z,4.50
2022-09-15T09:50:44.828Z,5.43
2022-09-15T09:53:20.965Z,6.82
2022-09-15T09:55:49.352Z,6.05
2022-09-15T09:58:20.679Z,4.35
2022-09-15T10:00:50.666Z,7.40
2022-09-15T10:03:19.824Z,4.53
2022-09-15T10:06:01.735Z,7.30
2022-09-15T10:08:30.290Z,7.00
2022-09-15T10:11:04.002Z,6.93
2022-09-15T10:13:32.369Z,4.53
2022-09-15T10:16:02.721Z,5.40
2022-09-15T10:18:33.759Z,2.60
2022-09-15T10:21:02.786Z,3.85
2022-09-15T10:23:32.098Z,4.82
2022-09-15T10:26:20.933Z,5.68
2022-09-15T10:29:11.573Z,6.97
2022-09-15T10:31:41.769Z,9.93
2022-09-15T10:34:30.539Z,6.90
2022-09-15T10:37:07.897Z,7.20
2022-09-15T10:39:40.958Z,9.45
2022-09-15T10:42:12.343Z,5.90
2022-09-15T10:44:45.750Z,4.03
2022-09-15T10:47:22.660Z,4.78
2022-09-15T10:49:55.043Z,7.28
2022-09-15T10:52:29.038Z,6.05
2022-09-15T10:55:05.247Z,5.85
2022-09-15T10:57:40.337Z,3.80
2022-09-15T11:00:12.035Z,3.45
2022-09-15T11:02:52.782Z,4.75
2022-09-15T11:05:26.387Z,4.10
2022-09-15T11:08:01.449Z,5.57
2022-09-15T11:10:32.661Z,6.38
2022-09-15T11:13:06.033Z,3.80
2022-09-15T11:15:39.423Z,7.50
2022-09-15T11:18:16.726Z,4.32
2022-09-15T11:21:05.756Z,3.40
2022-09-15T11:23:36.254Z,5.45
2022-09-15T11:26:07.176Z,6.30
2022-09-15T11:28:37.066Z,6.35
2022-09-15T11:31:07.539Z,4.32
2022-09-15T11:33:41.770Z,4.25
2022-09-15T11:36:11.707Z,5.05
2022-09-15T11:38:47.976Z,4.25
2022-09-15T11:41:19.857Z,6.30
2022-09-15T11:43:53.067Z,4.07
2022-09-15T11:46:25.608Z,3.78
2022-09-15T11:48:59.241Z,4.55
2022-09-15T11:51:28.649Z,7.15
2022-09-15T11:54:00.167Z,2.75
2022-09-15T11:56:31.180Z,3.35
2022-09-15T11:59:04.865Z,2.35
2022-09-15T12:01:36.442Z,2.30
2022-09-15T12:04:07.266Z,2.83
2022-09-15T12:06:45.444Z,4.75
2022-09-15T12:09:14.875Z,5.65
2022-09-15T12:11:44.291Z,3.95
2022-09-15T12:14:16.331Z,4.22
2022-09-15T12:16:45.316Z,5.85
2022-09-15T12:19:18.619Z,3.45
2022-09-15T12:21:52.947Z,3.17
2022-09-15T12:24:25.320Z,7.03
2022-09-15T12:26:54.041Z,4.32
2022-09-15T12:29:33.220Z,5.95
2022-09-15T12:32:20.524Z,2.50
2022-09-15T12:35:00.606Z,4.40
2022-09-15T12:37:39.841Z,3.86
2022-09-15T12:40:09.064Z,6.68
2022-09-15T12:42:38.511Z,4.55
2022-09-15T12:45:08.494Z,8.70
2022-09-15T12:47:38.022Z,3.72
2022-09-15T12:50:11.125Z,4.28
2022-09-15T12:52:44.563Z,3.85
2022-09-15T12:55:19.995Z,3.13
2022-09-15T12:57:53.078Z,3.03
2022-09-15T13:00:32.450Z,2.97
2022-09-15T13:03:01.923Z,2.40
2022-09-15T13:05:49.391Z,1.58
2022-09-15T13:08:39.590Z,1.93
2022-09-15T13:11:10.065Z,2.40
2022-09-15T13:13:41.220Z,4.18
2022-09-15T13:16:12.258Z,3.50
2022-09-15T13:18:42.717Z,2.38
2022-09-15T13:21:14.395Z,2.45
2022-09-15T13:23:48.042Z,2.80
2022-09-15T13:26:18.498Z,2.67
2022-09-15T13:28:50.479Z,2.80
2022-09-15T13:31:29.817Z,4.55
2022-09-15T13:40:27.208Z,2.88
2022-09-15T13:43:03.767Z,4.68
2022-09-15T13:45:47.032Z,3.83
2022-09-15T13:48:31.085Z,3.38
2022-09-15T13:51:00.963Z,6.40
2022-09-15T13:53:42.671Z,5.25
2022-09-15T13:56:14.999Z,3.72
2022-09-15T13:59:06.509Z,5.03
2022-09-15T14:01:38.260Z,3.10
2022-09-15T14:04:08.072Z,5.50
2022-09-15T14:06:37.827Z,4.80
2022-09-15T14:09:10.507Z,3.17
2022-09-15T14:11:40.747Z,4.93
2022-09-15T14:14:12.216Z,4.20
2022-09-15T14:16:41.087Z,2.53
2022-09-15T14:19:31.210Z,4.32
2022-09-15T14:21:59.795Z,3.22
2022-09-15T14:24:31.176Z,2.40
2022-09-15T14:27:03.549Z,4.70
2022-09-15T14:29:32.056Z,3.53
2022-09-15T14:32:04.074Z,1.67
2022-09-15T14:34:33.673Z,3.88
2022-09-15T14:37:04.246Z,4.07
2022-09-15T14:39:33.528Z,3.50
2022-09-15T14:42:21.197Z,4.25
2022-09-15T14:47:40.553Z,4.10
2022-09-15T14:50:10.478Z,3.50
2022-09-15T14:52:41.154Z,5.82
2022-09-15T14:55:12.981Z,2.65
2022-09-15T15:00:21.105Z,1.70
2022-09-15T15:02:54.362Z,2.30
2022-09-15T15:05:25.116Z,2.50
2022-09-15T15:07:55.443Z,2.55
2022-09-15T15:10:26.434Z,2.35
2022-09-15T15:13:00.617Z,1.63
2022-09-15T15:15:29.270Z,2.67
2022-09-15T15:17:58.411Z,2.65
2022-09-15T15:20:28.131Z,2.20
2022-09-15T15:23:12.899Z,2.38
2022-09-15T15:25:51.890Z,2.33
2022-09-15T15:28:37.684Z,2.30
2022-09-15T15:31:24.228Z,5.40
2022-09-15T15:33:55.908Z,5.30
2022-09-15T15:36:25.267Z,7.70
2022-09-15T15:38:55.039Z,3.22
2022-09-15T15:41:26.954Z,3.08
2022-09-15T15:44:09.471Z,2.78
2022-09-15T15:46:49.436Z,1.45
2022-09-15T15:49:19.252Z,4.90
2022-09-15T15:51:47.891Z,2.03
2022-09-15T15:54:16.404Z,2.15
2022-09-15T15:56:45.034Z,3.27
2022-09-15T15:59:16.441Z,2.80
2022-09-15T16:01:45.084Z,1.30
2022-09-15T16:04:14.139Z,3.23
2022-09-15T16:06:43.155Z,3.10
2022-09-15T16:09:12.162Z,3.77
2022-09-15T16:11:40.561Z,0.80
2022-09-15T16:14:11.346Z,1.60
2022-09-15T16:16:41.798Z,4.87
2022-09-15T16:19:11.428Z,3.30
2022-09-15T16:21:41.755Z,0.67
2022-09-15T16:24:13.680Z,1.47
2022-09-15T16:26:42.765Z,1.63
2022-09-15T16:29:11.453Z,0.90
2022-09-15T16:31:43.028Z,0.70
2022-09-15T16:34:12.849Z,1.87
2022-09-15T16:36:41.207Z,2.47
2022-09-15T16:39:09.585Z,3.40
2022-09-15T16:41:39.391Z,1.73
2022-09-15T16:44:13.331Z,1.03
2022-09-15T16:46:43.325Z,2.97
2022-09-15T16:49:11.795Z,2.03
2022-09-15T16:51:40.158Z,1.00
2022-09-15T16:54:14.206Z,2.30
2022-09-15T16:56:42.869Z,2.33
2022-09-15T16:59:11.546Z,2.73
2022-09-15T17:01:41.160Z,3.27
2022-09-15T17:04:14.641Z,2.43
2022-09-15T17:06:43.152Z,2.33
2022-09-15T17:09:12.006Z,4.83
2022-09-15T17:11:40.544Z,2.53
2022-09-15T17:14:10.568Z,2.83
2022-09-15T17:16:39.598Z,2.27
2022-09-15T17:19:08.483Z,2.67
2022-09-15T17:21:38.438Z,1.90
2022-09-15T17:24:07.018Z,5.90
2022-09-15T17:26:35.463Z,3.40
2022-09-15T17:29:03.855Z,4.23
2022-09-15T17:31:32.478Z,2.67
2022-09-15T17:34:00.957Z,3.20
2022-09-15T17:36:29.363Z,3.40
2022-09-15T17:38:59.138Z,3.57
2022-09-15T17:41:27.522Z,3.77
2022-09-15T17:43:56.160Z,2.70
2022-09-15T17:46:24.586Z,4.23
2022-09-15T17:48:53.006Z,2.37
2022-09-15T17:51:21.351Z,2.97
2022-09-15T17:53:49.706Z,3.80
2022-09-15T17:56:19.400Z,3.17
2022-09-15T17:58:47.782Z,3.77
2022-09-15T18:01:17.068Z,2.37
2022-09-15T18:03:46.884Z,2.93
2022-09-15T18:06:15.220Z,2.37
2022-09-15T18:08:43.760Z,2.47
2022-09-15T18:11:15.017Z,3.60
2022-09-15T18:13:44.869Z,2.47
2022-09-15T18:16:14.878Z,3.63
2022-09-15T18:18:43.727Z,2.30
2022-09-15T18:21:24.558Z,3.13
2022-09-15T18:23:52.985Z,4.83
2022-09-15T18:26:23.980Z,2.97
2022-09-15T18:28:56.481Z,3.10
2022-09-15T18:31:24.895Z,1.20
2022-09-15T18:33:53.433Z,3.20
2022-09-15T18:36:21.848Z,4.00
2022-09-15T18:38:50.204Z,4.27
2022-09-15T18:41:18.583Z,2.43
2022-09-15T18:43:49.189Z,2.87
2022-09-15T18:46:19.332Z,1.03
2022-09-15T18:48:48.124Z,1.73
2022-09-15T18:51:24.232Z,3.30
2022-09-15T18:54:01.264Z,3.57
2022-09-15T18:56:30.267Z,2.80
2022-09-15T18:58:58.646Z,2.80
2022-09-15T19:01:28.442Z,2.53
2022-09-15T19:03:57.129Z,2.17
2022-09-15T19:06:25.631Z,2.07
2022-09-15T19:08:54.123Z,1.97
2022-09-15T19:11:22.505Z,3.87
2022-09-15T19:13:51.006Z,2.13
2022-09-15T19:16:22.765Z,3.97
2022-09-15T19:18:53.586Z,5.00
2022-09-15T19:21:27.099Z,2.13
2022-09-15T19:23:58.203Z,3.20
2022-09-15T19:26:28.867Z,3.83
2022-09-15T19:28:57.830Z,3.60
2022-09-15T19:31:26.998Z,5.00
2022-09-15T19:33:56.847Z,2.63
2022-09-15T19:36:28.515Z,5.30
2022-09-15T19:38:57.415Z,3.77
2022-09-15T19:41:26.210Z,2.67
2022-09-15T19:43:55.015Z,2.77
2022-09-15T19:46:24.836Z,4.40
2022-09-15T19:48:54.422Z,5.90
2022-09-15T19:51:24.508Z,3.23
2022-09-15T19:53:55.059Z,5.00
2022-09-15T19:56:26.227Z,3.03
2022-09-15T19:58:56.002Z,2.60
2022-09-15T20:01:27.550Z,2.70
2022-09-15T20:03:56.194Z,4.50
2022-09-15T20:06:30.227Z,3.33
2022-09-15T20:09:00.577Z,5.40
2022-09-15T20:11:29.690Z,5.63
2022-09-15T20:13:58.199Z,5.27
2022-09-15T20:16:26.632Z,4.80
2022-09-15T20:18:55.925Z,4.73
2022-09-15T20:21:39.100Z,3.23
2022-09-15T20:24:14.665Z,3.27
2022-09-15T20:26:43.023Z,3.60
2022-09-15T20:29:12.134Z,4.93
2022-09-15T20:31:40.812Z,4.90
2022-09-15T20:34:09.342Z,4.67
2022-09-15T20:36:39.836Z,2.93
2022-09-15T20:39:10.616Z,2.97
2022-09-15T20:41:39.910Z,6.53
2022-09-15T20:44:09.567Z,3.63
2022-09-15T20:46:37.955Z,5.33
2022-09-15T20:49:06.654Z,5.97
2022-09-15T20:51:35.300Z,2.97
2022-09-15T20:54:05.398Z,3.47
2022-09-15T20:56:35.126Z,4.13
2022-09-15T20:59:04.665Z,2.57
2022-09-15T21:01:34.429Z,3.20
2022-09-15T21:04:03.134Z,2.70
2022-09-15T21:06:31.625Z,4.67
2022-09-15T21:09:00.387Z,3.40
2022-09-15T21:11:30.648Z,2.80
2022-09-15T21:13:59.842Z,2.80
2022-09-15T21:16:29.475Z,5.40
2022-09-15T21:18:59.962Z,1.83
2022-09-15T21:21:29.910Z,3.40
2022-09-15T21:24:01.184Z,6.57
2022-09-15T21:26:31.835Z,5.13
2022-09-15T21:29:00.287Z,4.40
2022-09-15T21:31:30.121Z,3.17
2022-09-15T21:33:59.378Z,3.43
2022-09-15T21:36:29.685Z,4.20
2022-09-15T21:38:58.870Z,2.13
2022-09-15T21:41:28.142Z,2.80
2022-09-15T21:43:59.155Z,2.03
2022-09-15T21:46:28.383Z,2.77
2022-09-15T21:48:57.592Z,2.77
2022-09-15T21:51:26.385Z,2.10
2022-09-15T21:53:55.744Z,2.20
2022-09-15T21:56:24.543Z,1.60
2022-09-15T21:58:54.202Z,2.97
2022-09-15T22:01:25.334Z,3.17
2022-09-15T22:03:54.951Z,2.37
2022-09-15T22:06:27.543Z,2.03
2022-09-15T22:08:56.107Z,2.10
2022-09-15T22:11:24.629Z,2.90
2022-09-15T22:13:53.241Z,2.17
2022-09-15T22:16:22.859Z,4.17
2022-09-15T22:18:53.092Z,2.43
2022-09-15T22:21:22.583Z,5.57
2022-09-15T22:23:51.957Z,2.20
2022-09-15T22:26:21.561Z,2.93
2022-09-15T22:28:50.381Z,3.20
2022-09-15T22:31:20.017Z,2.73
2022-09-15T22:33:48.734Z,3.53
2022-09-15T22:36:19.761Z,3.13
2022-09-15T22:38:48.411Z,1.93
2022-09-15T22:41:17.864Z,3.30
2022-09-15T22:43:48.023Z,2.30
2022-09-15T22:46:17.045Z,4.87
2022-09-15T22:48:45.473Z,2.03
2022-09-15T22:51:14.647Z,2.67
2022-09-15T22:53:44.405Z,4.23
2022-09-15T22:56:15.059Z,3.17
2022-09-15T22:58:44.831Z,3.93
2022-09-15T23:01:14.438Z,4.27
2022-09-15T23:03:43.759Z,3.97
2022-09-15T23:06:12.254Z,3.83
2022-09-15T23:08:40.656Z,3.87
2022-09-15T23:11:11.151Z,4.13
2022-09-15T23:13:39.957Z,2.80
2022-09-15T23:16:09.274Z,3.53
2022-09-15T23:18:37.779Z,3.60
2022-09-15T23:21:07.945Z,2.70
2022-09-15T23:23:36.732Z,3.33
2022-09-15T23:26:05.643Z,3.70
2022-09-15T23:28:35.487Z,3.30
2022-09-15T23:31:04.154Z,3.77
2022-09-15T23:33:33.359Z,4.40
2022-09-15T23:36:02.026Z,4.77
2022-09-15T23:38:30.402Z,2.60
2022-09-15T23:40:58.857Z,4.83
2022-09-15T23:43:27.262Z,4.67
2022-09-15T23:45:57.010Z,5.90
2022-09-15T23:48:25.397Z,5.57
2022-09-15T23:50:53.986Z,5.17
2022-09-15T23:53:22.350Z,2.73
2022-09-15T23:55:50.679Z,4.97
2022-09-15T23:58:19.335Z,5.60
